sensor_id;sensor_type;location;lat;lon;timestamp;P1;durP1;ratioP1;P2;durP2;ratioP2
29236;SDS011;16266;50.866;4.398;2023-12-20T00:00:28;1999.90;;;999.90;;
29236;SDS011;16266;50.866;4.398;2023-12-20T00:02:54;1999.90;;;999.90;;
29236;SDS011;16266;50.866;4.398;2023-12-20T00:05:19;1999.90;;;999.90;;
29236;SDS011;16266;50.866;4.398;2023-12-20T00:07:45;1999.90;;;999.90;;
29236;SDS011;16266;50.866;4.398;2023-12-20T00:10:10;1999.90;;;999.90;;
29236;SDS011;16266;50.866;4.398;2023-12-20T00:12:38;1999.90;;;999.90;;
29236;SDS011;16266;50.866;4.398;2023-12-20T00:15:03;1999.90;;;999.90;;
29236;SDS011;16266;50.866;4.398;2023-12-20T00:17:29;1999.90;;;999.90;;
29236;SDS011;16266;50.866;4.398;2023-12-20T00:19:55;1999.90;;;999.90;;
29236;SDS011;16266;50.866;4.398;2023-12-20T00:22:21;1999.90;;;999.90;;
29236;SDS011;16266;50.866;4.398;2023-12-20T00:24:46;1999.90;;;999.90;;
29236;SDS011;16266;50.866;4.398;2023-12-20T00:27:12;1999.90;;;999.90;;
29236;SDS011;16266;50.866;4.398;2023-12-20T00:29:37;1999.90;;;999.90;;
29236;SDS011;16266;50.866;4.398;2023-12-20T00:32:03;1999.90;;;999.90;;
29236;SDS011;16266;50.866;4.398;2023-12-20T00:34:29;1999.90;;;999.90;;
29236;SDS011;16266;50.866;4.398;2023-12-20T00:36:55;1999.90;;;999.90;;
29236;SDS011;16266;50.866;4.398;2023-12-20T00:39:21;1999.90;;;999.90;;
29236;SDS011;16266;50.866;4.398;2023-12-20T00:41:47;1999.90;;;999.90;;
29236;SDS011;16266;50.866;4.398;2023-12-20T00:44:13;1999.90;;;999.90;;
29236;SDS011;16266;50.866;4.398;2023-12-20T00:46:38;1999.90;;;999.90;;
29236;SDS011;16266;50.866;4.398;2023-12-20T00:49:05;1999.90;;;999.90;;
29236;SDS011;16266;50.866;4.398;2023-12-20T00:51:31;1999.90;;;999.90;;
29236;SDS011;16266;50.866;4.398;2023-12-20T00:53:56;1999.90;;;999.90;;
29236;SDS011;16266;50.866;4.398;2023-12-20T00:56:23;1999.90;;;999.90;;
29236;SDS011;16266;50.866;4.398;2023-12-20T00:58:49;1999.90;;;999.90;;
29236;SDS011;16266;50.866;4.398;2023-12-20T01:01:15;1999.90;;;999.90;;
29236;SDS011;16266;50.866;4.398;2023-12-20T01:03:41;1999.90;;;999.90;;
29236;SDS011;16266;50.866;4.398;2023-12-20T01:06:06;1999.90;;;999.90;;
29236;SDS011;16266;50.866;4.398;2023-12-20T01:08:32;1999.90;;;999.90;;
29236;SDS011;16266;50.866;4.398;2023-12-20T01:11:00;1999.90;;;999.90;;
29236;SDS011;16266;50.866;4.398;2023-12-20T01:13:25;1999.90;;;999.90;;
29236;SDS011;16266;50.866;4.398;2023-12-20T01:15:51;1999.90;;;999.90;;
29236;SDS011;16266;50.866;4.398;2023-12-20T01:18:16;1999.90;;;999.90;;
29236;SDS011;16266;50.866;4.398;2023-12-20T01:20:42;1999.90;;;999.90;;
29236;SDS011;16266;50.866;4.398;2023-12-20T01:23:08;1999.90;;;999.90;;
29236;SDS011;16266;50.866;4.398;2023-12-20T01:25:34;1999.90;;;999.90;;
29236;SDS011;16266;50.866;4.398;2023-12-20T01:27:59;1999.90;;;999.90;;
29236;SDS011;16266;50.866;4.398;2023-12-20T01:30:25;1999.90;;;999.90;;
29236;SDS011;16266;50.866;4.398;2023-12-20T01:32:50;1999.90;;;999.90;;
29236;SDS011;16266;50.866;4.398;2023-12-20T01:35:16;1999.90;;;999.90;;
29236;SDS011;16266;50.866;4.398;2023-12-20T01:37:42;1999.90;;;999.90;;
29236;SDS011;16266;50.866;4.398;2023-12-20T01:40:07;1999.90;;;999.90;;
29236;SDS011;16266;50.866;4.398;2023-12-20T01:42:34;1999.90;;;999.90;;
29236;SDS011;16266;50.866;4.398;2023-12-20T01:44:59;1999.90;;;999.90;;
29236;SDS011;16266;50.866;4.398;2023-12-20T01:47:25;1999.90;;;999.90;;
29236;SDS011;16266;50.866;4.398;2023-12-20T01:49:52;1999.90;;;999.90;;
29236;SDS011;16266;50.866;4.398;2023-12-20T01:52:18;1999.90;;;999.90;;
29236;SDS011;16266;50.866;4.398;2023-12-20T01:54:45;1999.90;;;999.90;;
29236;SDS011;16266;50.866;4.398;2023-12-20T01:57:12;1999.90;;;999.90;;
29236;SDS011;16266;50.866;4.398;2023-12-20T01:59:39;1999.90;;;999.90;;
29236;SDS011;16266;50.866;4.398;2023-12-20T02:02:05;1999.90;;;999.90;;
29236;SDS011;16266;50.866;4.398;2023-12-20T02:04:32;1999.90;;;999.90;;
29236;SDS011;16266;50.866;4.398;2023-12-20T02:06:58;1999.90;;;999.90;;
29236;SDS011;16266;50.866;4.398;2023-12-20T02:09:24;1999.90;;;999.90;;
29236;SDS011;16266;50.866;4.398;2023-12-20T02:11:50;1999.90;;;999.90;;
29236;SDS011;16266;50.866;4.398;2023-12-20T02:14:15;1999.90;;;999.90;;
29236;SDS011;16266;50.866;4.398;2023-12-20T02:16:41;1999.90;;;999.90;;
29236;SDS011;16266;50.866;4.398;2023-12-20T02:19:08;1999.90;;;999.90;;
29236;SDS011;16266;50.866;4.398;2023-12-20T02:21:39;1999.90;;;999.90;;
29236;SDS011;16266;50.866;4.398;2023-12-20T02:24:05;1999.90;;;999.90;;
29236;SDS011;16266;50.866;4.398;2023-12-20T02:26:32;1999.90;;;999.90;;
29236;SDS011;16266;50.866;4.398;2023-12-20T02:28:58;1999.90;;;999.90;;
29236;SDS011;16266;50.866;4.398;2023-12-20T02:31:25;1999.90;;;999.90;;
29236;SDS011;16266;50.866;4.398;2023-12-20T02:33:50;1999.90;;;999.90;;
29236;SDS011;16266;50.866;4.398;2023-12-20T02:36:16;1999.90;;;999.90;;
29236;SDS011;16266;50.866;4.398;2023-12-20T02:38:42;1999.90;;;999.90;;
29236;SDS011;16266;50.866;4.398;2023-12-20T02:41:07;1999.90;;;999.90;;
29236;SDS011;16266;50.866;4.398;2023-12-20T02:43:33;1999.90;;;999.90;;
29236;SDS011;16266;50.866;4.398;2023-12-20T02:45:59;1999.90;;;999.90;;
29236;SDS011;16266;50.866;4.398;2023-12-20T02:48:24;1999.90;;;999.90;;
29236;SDS011;16266;50.866;4.398;2023-12-20T02:50:50;1999.90;;;999.90;;
29236;SDS011;16266;50.866;4.398;2023-12-20T02:53:16;1999.90;;;999.90;;
29236;SDS011;16266;50.866;4.398;2023-12-20T02:55:42;1999.90;;;999.90;;
29236;SDS011;16266;50.866;4.398;2023-12-20T02:58:08;1999.90;;;999.90;;
29236;SDS011;16266;50.866;4.398;2023-12-20T03:00:33;1999.90;;;999.90;;
29236;SDS011;16266;50.866;4.398;2023-12-20T03:03:00;1999.90;;;999.90;;
29236;SDS011;16266;50.866;4.398;2023-12-20T03:05:26;1999.90;;;999.90;;
29236;SDS011;16266;50.866;4.398;2023-12-20T03:07:51;1999.90;;;999.90;;
29236;SDS011;16266;50.866;4.398;2023-12-20T03:10:18;1999.90;;;999.90;;
29236;SDS011;16266;50.866;4.398;2023-12-20T03:12:45;1999.90;;;999.90;;
29236;SDS011;16266;50.866;4.398;2023-12-20T03:15:10;1999.90;;;999.90;;
29236;SDS011;16266;50.866;4.398;2023-12-20T03:17:36;1999.90;;;999.90;;
29236;SDS011;16266;50.866;4.398;2023-12-20T03:20:02;1999.90;;;999.90;;
29236;SDS011;16266;50.866;4.398;2023-12-20T03:22:28;1999.90;;;999.90;;
29236;SDS011;16266;50.866;4.398;2023-12-20T03:24:53;1999.90;;;999.90;;
29236;SDS011;16266;50.866;4.398;2023-12-20T03:27:19;1999.90;;;999.90;;
29236;SDS011;16266;50.866;4.398;2023-12-20T03:29:45;1999.90;;;999.90;;
29236;SDS011;16266;50.866;4.398;2023-12-20T03:32:10;1999.90;;;999.90;;
29236;SDS011;16266;50.866;4.398;2023-12-20T03:34:36;1999.90;;;999.90;;
29236;SDS011;16266;50.866;4.398;2023-12-20T03:37:02;1999.90;;;999.90;;
29236;SDS011;16266;50.866;4.398;2023-12-20T03:39:28;1999.90;;;999.90;;
29236;SDS011;16266;50.866;4.398;2023-12-20T03:41:53;1999.90;;;999.90;;
29236;SDS011;16266;50.866;4.398;2023-12-20T03:44:20;1999.90;;;999.90;;
29236;SDS011;16266;50.866;4.398;2023-12-20T03:46:46;1999.90;;;999.90;;
29236;SDS011;16266;50.866;4.398;2023-12-20T03:49:12;1999.90;;;999.90;;
29236;SDS011;16266;50.866;4.398;2023-12-20T03:51:38;1999.90;;;999.90;;
29236;SDS011;16266;50.866;4.398;2023-12-20T03:54:03;1999.90;;;999.90;;
29236;SDS011;16266;50.866;4.398;2023-12-20T03:56:29;1999.90;;;999.90;;
29236;SDS011;16266;50.866;4.398;2023-12-20T03:58:56;1999.90;;;999.90;;
29236;SDS011;16266;50.866;4.398;2023-12-20T04:01:21;1999.90;;;999.90;;
29236;SDS011;16266;50.866;4.398;2023-12-20T04:03:47;1999.90;;;999.90;;
29236;SDS011;16266;50.866;4.398;2023-12-20T04:06:18;1999.90;;;999.90;;
29236;SDS011;16266;50.866;4.398;2023-12-20T04:08:44;1999.90;;;999.90;;
29236;SDS011;16266;50.866;4.398;2023-12-20T04:11:10;1999.90;;;999.90;;
29236;SDS011;16266;50.866;4.398;2023-12-20T04:13:36;1999.90;;;999.90;;
29236;SDS011;16266;50.866;4.398;2023-12-20T04:16:01;1999.90;;;999.90;;
29236;SDS011;16266;50.866;4.398;2023-12-20T04:18:27;1999.90;;;999.90;;
29236;SDS011;16266;50.866;4.398;2023-12-20T04:20:53;1999.90;;;999.90;;
29236;SDS011;16266;50.866;4.398;2023-12-20T04:23:19;1999.90;;;999.90;;
29236;SDS011;16266;50.866;4.398;2023-12-20T04:25:46;1999.90;;;999.90;;
29236;SDS011;16266;50.866;4.398;2023-12-20T04:28:12;1999.90;;;999.90;;
29236;SDS011;16266;50.866;4.398;2023-12-20T04:30:37;1999.90;;;999.90;;
29236;SDS011;16266;50.866;4.398;2023-12-20T04:33:03;1999.90;;;999.90;;
29236;SDS011;16266;50.866;4.398;2023-12-20T04:35:29;1999.90;;;999.90;;
29236;SDS011;16266;50.866;4.398;2023-12-20T04:37:54;1999.90;;;999.90;;
29236;SDS011;16266;50.866;4.398;2023-12-20T04:40:20;1999.90;;;999.90;;
29236;SDS011;16266;50.866;4.398;2023-12-20T04:42:46;1999.90;;;999.90;;
29236;SDS011;16266;50.866;4.398;2023-12-20T04:45:11;1999.90;;;999.90;;
29236;SDS011;16266;50.866;4.398;2023-12-20T04:47:38;1999.90;;;999.90;;
29236;SDS011;16266;50.866;4.398;2023-12-20T04:50:04;1999.90;;;999.90;;
29236;SDS011;16266;50.866;4.398;2023-12-20T04:52:30;1999.90;;;999.90;;
29236;SDS011;16266;50.866;4.398;2023-12-20T04:54:56;1999.90;;;999.90;;
29236;SDS011;16266;50.866;4.398;2023-12-20T04:57:22;1999.90;;;999.90;;
29236;SDS011;16266;50.866;4.398;2023-12-20T04:59:47;1999.90;;;999.90;;
29236;SDS011;16266;50.866;4.398;2023-12-20T05:02:13;1999.90;;;999.90;;
29236;SDS011;16266;50.866;4.398;2023-12-20T05:04:39;1999.90;;;999.90;;
29236;SDS011;16266;50.866;4.398;2023-12-20T05:07:04;1999.90;;;999.90;;
29236;SDS011;16266;50.866;4.398;2023-12-20T05:09:30;1999.90;;;999.90;;
29236;SDS011;16266;50.866;4.398;2023-12-20T05:11:56;1999.90;;;999.90;;
29236;SDS011;16266;50.866;4.398;2023-12-20T05:14:23;1999.90;;;999.90;;
29236;SDS011;16266;50.866;4.398;2023-12-20T05:16:49;1999.90;;;999.90;;
29236;SDS011;16266;50.866;4.398;2023-12-20T05:19:15;1999.90;;;999.90;;
29236;SDS011;16266;50.866;4.398;2023-12-20T05:21:41;1999.90;;;999.90;;
29236;SDS011;16266;50.866;4.398;2023-12-20T05:24:06;1999.90;;;999.90;;
29236;SDS011;16266;50.866;4.398;2023-12-20T05:26:32;1999.90;;;999.90;;
29236;SDS011;16266;50.866;4.398;2023-12-20T05:28:58;1999.90;;;999.90;;
29236;SDS011;16266;50.866;4.398;2023-12-20T05:31:24;1999.90;;;999.90;;
29236;SDS011;16266;50.866;4.398;2023-12-20T05:33:49;1999.90;;;999.90;;
29236;SDS011;16266;50.866;4.398;2023-12-20T05:36:15;1999.90;;;999.90;;
29236;SDS011;16266;50.866;4.398;2023-12-20T05:38:40;1999.90;;;999.90;;
29236;SDS011;16266;50.866;4.398;2023-12-20T05:41:06;1999.90;;;999.90;;
29236;SDS011;16266;50.866;4.398;2023-12-20T05:43:32;1999.90;;;999.90;;
29236;SDS011;16266;50.866;4.398;2023-12-20T05:45:58;1999.90;;;999.90;;
29236;SDS011;16266;50.866;4.398;2023-12-20T05:48:23;1999.90;;;999.90;;
29236;SDS011;16266;50.866;4.398;2023-12-20T05:50:49;1999.90;;;999.90;;
29236;SDS011;16266;50.866;4.398;2023-12-20T05:53:14;1999.90;;;999.90;;
29236;SDS011;16266;50.866;4.398;2023-12-20T05:55:40;1999.90;;;999.90;;
29236;SDS011;16266;50.866;4.398;2023-12-20T05:58:06;1999.90;;;999.90;;
29236;SDS011;16266;50.866;4.398;2023-12-20T06:00:31;1999.90;;;999.90;;
29236;SDS011;16266;50.866;4.398;2023-12-20T06:02:57;1999.90;;;999.90;;
29236;SDS011;16266;50.866;4.398;2023-12-20T06:05:22;1999.90;;;999.90;;
29236;SDS011;16266;50.866;4.398;2023-12-20T06:07:48;1999.90;;;999.90;;
29236;SDS011;16266;50.866;4.398;2023-12-20T06:10:16;1999.90;;;999.90;;
29236;SDS011;16266;50.866;4.398;2023-12-20T06:12:42;1999.90;;;999.90;;
29236;SDS011;16266;50.866;4.398;2023-12-20T06:15:08;1999.90;;;999.90;;
29236;SDS011;16266;50.866;4.398;2023-12-20T06:17:33;1999.90;;;999.90;;
29236;SDS011;16266;50.866;4.398;2023-12-20T06:20:00;1999.90;;;999.90;;
29236;SDS011;16266;50.866;4.398;2023-12-20T06:22:26;1999.90;;;999.90;;
29236;SDS011;16266;50.866;4.398;2023-12-20T06:24:51;1999.90;;;999.90;;
29236;SDS011;16266;50.866;4.398;2023-12-20T06:27:17;1999.90;;;999.90;;
29236;SDS011;16266;50.866;4.398;2023-12-20T06:29:43;1999.90;;;999.90;;
29236;SDS011;16266;50.866;4.398;2023-12-20T06:32:10;1999.90;;;999.90;;
29236;SDS011;16266;50.866;4.398;2023-12-20T06:34:35;1999.90;;;999.90;;
29236;SDS011;16266;50.866;4.398;2023-12-20T06:37:01;1999.90;;;999.90;;
29236;SDS011;16266;50.866;4.398;2023-12-20T06:39:27;1999.90;;;999.90;;
29236;SDS011;16266;50.866;4.398;2023-12-20T06:41:53;1999.90;;;999.90;;
29236;SDS011;16266;50.866;4.398;2023-12-20T06:44:18;1999.90;;;999.90;;
29236;SDS011;16266;50.866;4.398;2023-12-20T06:46:44;1999.90;;;999.90;;
29236;SDS011;16266;50.866;4.398;2023-12-20T06:49:10;1999.90;;;999.90;;
29236;SDS011;16266;50.866;4.398;2023-12-20T06:51:35;1999.90;;;999.90;;
29236;SDS011;16266;50.866;4.398;2023-12-20T06:54:01;1999.90;;;999.90;;
29236;SDS011;16266;50.866;4.398;2023-12-20T06:56:27;1999.90;;;999.90;;
29236;SDS011;16266;50.866;4.398;2023-12-20T06:58:53;1999.90;;;999.90;;
29236;SDS011;16266;50.866;4.398;2023-12-20T07:01:19;1999.90;;;999.90;;
29236;SDS011;16266;50.866;4.398;2023-12-20T07:03:45;1999.90;;;999.90;;
29236;SDS011;16266;50.866;4.398;2023-12-20T07:06:10;1999.90;;;999.90;;
29236;SDS011;16266;50.866;4.398;2023-12-20T07:08:36;1999.90;;;999.90;;
29236;SDS011;16266;50.866;4.398;2023-12-20T07:11:02;1999.90;;;999.90;;
29236;SDS011;16266;50.866;4.398;2023-12-20T07:13:27;1999.90;;;999.90;;
29236;SDS011;16266;50.866;4.398;2023-12-20T07:15:53;1999.90;;;999.90;;
29236;SDS011;16266;50.866;4.398;2023-12-20T07:18:19;1999.90;;;999.90;;
29236;SDS011;16266;50.866;4.398;2023-12-20T07:20:44;1999.90;;;999.90;;
29236;SDS011;16266;50.866;4.398;2023-12-20T07:23:10;1999.90;;;999.90;;
29236;SDS011;16266;50.866;4.398;2023-12-20T07:25:36;1999.90;;;999.90;;
29236;SDS011;16266;50.866;4.398;2023-12-20T07:28:02;1999.90;;;999.90;;
29236;SDS011;16266;50.866;4.398;2023-12-20T07:30:27;1999.90;;;999.90;;
29236;SDS011;16266;50.866;4.398;2023-12-20T07:32:53;1999.90;;;999.90;;
29236;SDS011;16266;50.866;4.398;2023-12-20T07:35:19;1999.90;;;999.90;;
29236;SDS011;16266;50.866;4.398;2023-12-20T07:37:44;1999.90;;;999.90;;
29236;SDS011;16266;50.866;4.398;2023-12-20T07:40:10;1999.90;;;999.90;;
29236;SDS011;16266;50.866;4.398;2023-12-20T07:42:36;1999.90;;;999.90;;
29236;SDS011;16266;50.866;4.398;2023-12-20T07:45:02;1999.90;;;999.90;;
29236;SDS011;16266;50.866;4.398;2023-12-20T07:47:28;1999.90;;;999.90;;
29236;SDS011;16266;50.866;4.398;2023-12-20T07:49:54;1999.90;;;999.90;;
29236;SDS011;16266;50.866;4.398;2023-12-20T07:52:20;1999.90;;;999.90;;
29236;SDS011;16266;50.866;4.398;2023-12-20T07:54:47;1999.90;;;999.90;;
29236;SDS011;16266;50.866;4.398;2023-12-20T07:57:13;1999.90;;;999.90;;
29236;SDS011;16266;50.866;4.398;2023-12-20T07:59:39;1999.90;;;999.90;;
29236;SDS011;16266;50.866;4.398;2023-12-20T08:02:04;1999.90;;;999.90;;
29236;SDS011;16266;50.866;4.398;2023-12-20T08:04:30;1999.90;;;999.90;;
29236;SDS011;16266;50.866;4.398;2023-12-20T08:06:56;1999.90;;;999.90;;
29236;SDS011;16266;50.866;4.398;2023-12-20T08:09:22;1999.90;;;999.90;;
29236;SDS011;16266;50.866;4.398;2023-12-20T08:11:47;1999.90;;;999.90;;
29236;SDS011;16266;50.866;4.398;2023-12-20T08:14:13;1999.90;;;999.90;;
29236;SDS011;16266;50.866;4.398;2023-12-20T08:16:39;1999.90;;;999.90;;
29236;SDS011;16266;50.866;4.398;2023-12-20T08:19:05;1999.90;;;999.90;;
29236;SDS011;16266;50.866;4.398;2023-12-20T08:21:31;1999.90;;;999.90;;
29236;SDS011;16266;50.866;4.398;2023-12-20T08:23:56;1999.90;;;999.90;;
29236;SDS011;16266;50.866;4.398;2023-12-20T08:26:22;1999.90;;;999.90;;
29236;SDS011;16266;50.866;4.398;2023-12-20T08:28:49;1999.90;;;999.90;;
29236;SDS011;16266;50.866;4.398;2023-12-20T08:31:16;1999.90;;;999.90;;
29236;SDS011;16266;50.866;4.398;2023-12-20T08:33:45;1999.90;;;999.90;;
29236;SDS011;16266;50.866;4.398;2023-12-20T08:36:11;1999.90;;;999.90;;
29236;SDS011;16266;50.866;4.398;2023-12-20T08:38:37;1999.90;;;999.90;;
29236;SDS011;16266;50.866;4.398;2023-12-20T08:41:03;1999.90;;;999.90;;
29236;SDS011;16266;50.866;4.398;2023-12-20T08:43:33;1999.90;;;999.90;;
29236;SDS011;16266;50.866;4.398;2023-12-20T08:46:00;1999.90;;;999.90;;
29236;SDS011;16266;50.866;4.398;2023-12-20T08:48:26;1999.90;;;999.90;;
29236;SDS011;16266;50.866;4.398;2023-12-20T08:50:52;1999.90;;;999.90;;
29236;SDS011;16266;50.866;4.398;2023-12-20T08:53:18;1999.90;;;999.90;;
29236;SDS011;16266;50.866;4.398;2023-12-20T08:55:44;1999.90;;;999.90;;
29236;SDS011;16266;50.866;4.398;2023-12-20T08:58:10;1999.90;;;999.90;;
29236;SDS011;16266;50.866;4.398;2023-12-20T09:00:36;1999.90;;;999.90;;
29236;SDS011;16266;50.866;4.398;2023-12-20T09:03:03;1999.90;;;999.90;;
29236;SDS011;16266;50.866;4.398;2023-12-20T09:05:29;1999.90;;;999.90;;
29236;SDS011;16266;50.866;4.398;2023-12-20T09:07:55;1999.90;;;999.90;;
29236;SDS011;16266;50.866;4.398;2023-12-20T09:10:21;1999.90;;;999.90;;
29236;SDS011;16266;50.866;4.398;2023-12-20T09:12:50;1999.90;;;999.90;;
29236;SDS011;16266;50.866;4.398;2023-12-20T09:15:19;1999.90;;;999.90;;
29236;SDS011;16266;50.866;4.398;2023-12-20T09:17:45;1999.90;;;999.90;;
29236;SDS011;16266;50.866;4.398;2023-12-20T09:20:10;1999.90;;;999.90;;
29236;SDS011;16266;50.866;4.398;2023-12-20T09:22:38;1999.90;;;999.90;;
29236;SDS011;16266;50.866;4.398;2023-12-20T09:25:04;1999.90;;;999.90;;
29236;SDS011;16266;50.866;4.398;2023-12-20T09:27:31;1999.90;;;999.90;;
29236;SDS011;16266;50.866;4.398;2023-12-20T09:29:57;1999.90;;;999.90;;
29236;SDS011;16266;50.866;4.398;2023-12-20T09:32:22;359.70;;;344.45;;
29236;SDS011;16266;50.866;4.398;2023-12-20T09:34:48;345.98;;;331.08;;
29236;SDS011;16266;50.866;4.398;2023-12-20T09:37:14;308.50;;;295.20;;
29236;SDS011;16266;50.866;4.398;2023-12-20T09:39:39;264.83;;;254.10;;
29236;SDS011;16266;50.866;4.398;2023-12-20T09:42:06;165.00;;;158.50;;
29236;SDS011;16266;50.866;4.398;2023-12-20T09:44:32;86.75;;;83.32;;
29236;SDS011;16266;50.866;4.398;2023-12-20T09:47:02;53.50;;;51.45;;
29236;SDS011;16266;50.866;4.398;2023-12-20T09:49:29;45.13;;;42.70;;
29236;SDS011;16266;50.866;4.398;2023-12-20T09:51:55;41.90;;;40.25;;
29236;SDS011;16266;50.866;4.398;2023-12-20T09:54:22;40.78;;;38.75;;
29236;SDS011;16266;50.866;4.398;2023-12-20T09:56:48;36.90;;;35.35;;
29236;SDS011;16266;50.866;4.398;2023-12-20T09:59:14;39.03;;;37.10;;
29236;SDS011;16266;50.866;4.398;2023-12-20T10:01:40;39.75;;;38.10;;
29236;SDS011;16266;50.866;4.398;2023-12-20T10:04:10;32.80;;;31.42;;
29236;SDS011;16266;50.866;4.398;2023-12-20T10:06:41;31.23;;;30.10;;
29236;SDS011;16266;50.866;4.398;2023-12-20T10:09:08;35.05;;;33.38;;
29236;SDS011;16266;50.866;4.398;2023-12-20T10:11:38;35.35;;;34.15;;
29236;SDS011;16266;50.866;4.398;2023-12-20T10:14:04;37.97;;;36.17;;
29236;SDS011;16266;50.866;4.398;2023-12-20T10:16:33;33.10;;;31.27;;
29236;SDS011;16266;50.866;4.398;2023-12-20T10:19:00;66.90;;;64.43;;
29236;SDS011;16266;50.866;4.398;2023-12-20T10:21:29;83.30;;;79.80;;
29236;SDS011;16266;50.866;4.398;2023-12-20T10:23:55;52.08;;;49.90;;
29236;SDS011;16266;50.866;4.398;2023-12-20T10:26:22;60.33;;;58.10;;
29236;SDS011;16266;50.866;4.398;2023-12-20T10:28:55;55.67;;;52.92;;
29236;SDS011;16266;50.866;4.398;2023-12-20T10:31:31;49.08;;;47.15;;
29236;SDS011;16266;50.866;4.398;2023-12-20T10:33:58;43.65;;;41.22;;
29236;SDS011;16266;50.866;4.398;2023-12-20T10:36:25;35.20;;;33.80;;
29236;SDS011;16266;50.866;4.398;2023-12-20T10:38:52;38.30;;;36.90;;
29236;SDS011;16266;50.866;4.398;2023-12-20T10:41:22;43.55;;;41.03;;
29236;SDS011;16266;50.866;4.398;2023-12-20T10:43:51;45.72;;;43.63;;
29236;SDS011;16266;50.866;4.398;2023-12-20T10:46:18;43.90;;;42.20;;
29236;SDS011;16266;50.866;4.398;2023-12-20T10:48:45;49.63;;;47.38;;
29236;SDS011;16266;50.866;4.398;2023-12-20T10:51:12;47.42;;;45.72;;
29236;SDS011;16266;50.866;4.398;2023-12-20T10:53:42;50.85;;;48.88;;
29236;SDS011;16266;50.866;4.398;2023-12-20T10:56:09;48.65;;;46.75;;
29236;SDS011;16266;50.866;4.398;2023-12-20T10:58:41;52.65;;;50.40;;
29236;SDS011;16266;50.866;4.398;2023-12-20T11:01:08;45.38;;;43.47;;
29236;SDS011;16266;50.866;4.398;2023-12-20T11:03:35;51.95;;;50.03;;
29236;SDS011;16266;50.866;4.398;2023-12-20T11:06:26;102.32;;;98.22;;
29236;SDS011;16266;50.866;4.398;2023-12-20T11:09:12;63.03;;;60.65;;
29236;SDS011;16266;50.866;4.398;2023-12-20T11:14:20;51.42;;;49.25;;
29236;SDS011;16266;50.866;4.398;2023-12-20T11:16:50;55.20;;;52.95;;
29236;SDS011;16266;50.866;4.398;2023-12-20T11:19:30;46.58;;;44.67;;
29236;SDS011;16266;50.866;4.398;2023-12-20T11:21:56;57.30;;;54.10;;
29236;SDS011;16266;50.866;4.398;2023-12-20T11:24:22;55.40;;;53.22;;
29236;SDS011;16266;50.866;4.398;2023-12-20T11:26:49;65.00;;;62.28;;
29236;SDS011;16266;50.866;4.398;2023-12-20T11:29:32;83.95;;;80.38;;
29236;SDS011;16266;50.866;4.398;2023-12-20T11:32:02;50.72;;;48.80;;
29236;SDS011;16266;50.866;4.398;2023-12-20T11:34:32;71.97;;;69.30;;
29236;SDS011;16266;50.866;4.398;2023-12-20T11:37:01;112.10;;;107.35;;
29236;SDS011;16266;50.866;4.398;2023-12-20T11:39:27;79.18;;;75.80;;
29236;SDS011;16266;50.866;4.398;2023-12-20T11:41:56;54.92;;;52.63;;
29236;SDS011;16266;50.866;4.398;2023-12-20T11:44:22;56.28;;;54.17;;
29236;SDS011;16266;50.866;4.398;2023-12-20T11:46:50;68.65;;;65.53;;
29236;SDS011;16266;50.866;4.398;2023-12-20T11:49:16;79.60;;;76.55;;
29236;SDS011;16266;50.866;4.398;2023-12-20T11:51:42;84.57;;;81.18;;
29236;SDS011;16266;50.866;4.398;2023-12-20T11:54:08;90.50;;;86.75;;
29236;SDS011;16266;50.866;4.398;2023-12-20T11:56:35;77.70;;;74.72;;
29236;SDS011;16266;50.866;4.398;2023-12-20T11:59:01;82.13;;;79.03;;
29236;SDS011;16266;50.866;4.398;2023-12-20T12:01:28;81.05;;;77.95;;
29236;SDS011;16266;50.866;4.398;2023-12-20T12:04:03;84.90;;;81.53;;
29236;SDS011;16266;50.866;4.398;2023-12-20T12:06:32;79.72;;;76.38;;
29236;SDS011;16266;50.866;4.398;2023-12-20T12:08:58;101.93;;;97.82;;
29236;SDS011;16266;50.866;4.398;2023-12-20T12:11:24;119.18;;;114.22;;
29236;SDS011;16266;50.866;4.398;2023-12-20T12:13:50;126.90;;;121.78;;
29236;SDS011;16266;50.866;4.398;2023-12-20T12:16:19;124.22;;;119.05;;
29236;SDS011;16266;50.866;4.398;2023-12-20T12:18:46;132.15;;;126.80;;
29236;SDS011;16266;50.866;4.398;2023-12-20T12:21:19;118.25;;;113.13;;
29236;SDS011;16266;50.866;4.398;2023-12-20T12:23:48;171.95;;;164.48;;
29236;SDS011;16266;50.866;4.398;2023-12-20T12:26:14;128.80;;;123.40;;
29236;SDS011;16266;50.866;4.398;2023-12-20T12:28:40;130.07;;;124.97;;
29236;SDS011;16266;50.866;4.398;2023-12-20T12:31:07;1999.90;;;999.90;;
29236;SDS011;16266;50.866;4.398;2023-12-20T12:33:33;177.55;;;170.43;;
29236;SDS011;16266;50.866;4.398;2023-12-20T12:36:00;1999.90;;;999.90;;
29236;SDS011;16266;50.866;4.398;2023-12-20T12:38:26;1999.90;;;999.90;;
29236;SDS011;16266;50.866;4.398;2023-12-20T12:40:54;1999.90;;;999.90;;
29236;SDS011;16266;50.866;4.398;2023-12-20T12:43:20;1999.90;;;999.90;;
29236;SDS011;16266;50.866;4.398;2023-12-20T12:45:48;1999.90;;;999.90;;
29236;SDS011;16266;50.866;4.398;2023-12-20T12:48:14;1999.90;;;999.90;;
29236;SDS011;16266;50.866;4.398;2023-12-20T12:50:40;1999.90;;;999.90;;
29236;SDS011;16266;50.866;4.398;2023-12-20T12:53:05;1999.90;;;999.90;;
29236;SDS011;16266;50.866;4.398;2023-12-20T12:55:31;1999.90;;;999.90;;
29236;SDS011;16266;50.866;4.398;2023-12-20T12:57:57;1999.90;;;999.90;;
29236;SDS011;16266;50.866;4.398;2023-12-20T13:00:23;1999.90;;;999.90;;
29236;SDS011;16266;50.866;4.398;2023-12-20T13:02:50;1999.90;;;999.90;;
29236;SDS011;16266;50.866;4.398;2023-12-20T13:05:15;1999.90;;;999.90;;
29236;SDS011;16266;50.866;4.398;2023-12-20T13:07:43;1999.90;;;999.90;;
29236;SDS011;16266;50.866;4.398;2023-12-20T13:10:10;1999.90;;;999.90;;
29236;SDS011;16266;50.866;4.398;2023-12-20T13:12:36;1999.90;;;999.90;;
29236;SDS011;16266;50.866;4.398;2023-12-20T13:15:02;1999.90;;;999.90;;
29236;SDS011;16266;50.866;4.398;2023-12-20T13:17:29;1999.90;;;999.90;;
29236;SDS011;16266;50.866;4.398;2023-12-20T13:19:55;1999.90;;;999.90;;
29236;SDS011;16266;50.866;4.398;2023-12-20T13:22:20;1999.90;;;999.90;;
29236;SDS011;16266;50.866;4.398;2023-12-20T13:24:47;1999.90;;;999.90;;
29236;SDS011;16266;50.866;4.398;2023-12-20T13:27:13;1999.90;;;999.90;;
29236;SDS011;16266;50.866;4.398;2023-12-20T13:29:38;1999.90;;;999.90;;
29236;SDS011;16266;50.866;4.398;2023-12-20T13:32:04;1999.90;;;999.90;;
29236;SDS011;16266;50.866;4.398;2023-12-20T13:34:30;1999.90;;;999.90;;
29236;SDS011;16266;50.866;4.398;2023-12-20T13:36:56;1999.90;;;999.90;;
29236;SDS011;16266;50.866;4.398;2023-12-20T13:39:22;1999.90;;;999.90;;
29236;SDS011;16266;50.866;4.398;2023-12-20T13:41:47;1999.90;;;999.90;;
29236;SDS011;16266;50.866;4.398;2023-12-20T13:44:13;1999.90;;;999.90;;
29236;SDS011;16266;50.866;4.398;2023-12-20T13:46:40;1999.90;;;999.90;;
29236;SDS011;16266;50.866;4.398;2023-12-20T13:49:06;1999.90;;;999.90;;